Details From YPPH - Perth
To YPLM - Learmonth
Flight Number -
Tags decoded
Created
Modified
Stats Distance 592 nm / 1,097 km
Max Altitude 0 ft / 0 m
Waypoints 4
Social Downloads 1
Likes 0
Share VATSIM

Download

Looking for another format? Having issues loading an existing format? Contact us
Advertisement - Login to hide

Notes

Requested: YPPH PH H17 LM YPLM

Route

YPPH PH LM YPLM

ID Type Via Altitude Latitude Longitude Leg Dist Tot Dist Heading (true) Name
O YPPH APT - 0 ft / 0 m -31.93967˚ 115.96661˚ - 0 nm - Perth
PH NDB - 0 ft / 0 m -31.93750˚ 115.95028˚ 0 nm 0 nm 279° / 279° PERTH NDB
LM NDB - 0 ft / 0 m -22.24139˚ 114.09583˚ 590 nm 591 nm 350° / 351° LEARMONTH NDB
O YPLM APT - 0 ft / 0 m -22.23362˚ 114.09006˚ 0 nm 592 nm 325° / 325° Learmonth

Altitude Profile

Advertisement - Login to hide

Weather


0- 5 10 15 20 25 30 35+ Temperature / ° C

Clouds and Precipitation
Forecast for 2018-05-25 06:00 UTC. Updated 3 hours ago

Ground ~20,000 ft ~40,000 ft Winds

YPPH

Details ICAO YPPH (PER)
Name Perth
Region Australia
Timezone Australia/Perth (UTC+8.0)
Stats Elevation 70 ft / 21 m (AMSL)
Location -31.939673° 115.966614°
Runways 2
Magnetic Variation 1.675° W

METAR

YPPH 250735Z 31015G28KT 9999 -SHRA FEW018 BKN034 15/13 Q1001 INTER 0735/1035 31025G45KT 3000 SHRA BKN020 FM0735 MOD TURB BLW 5000FT

Decode

TAF

TAF YPPH 250517Z 2506/2612 31020G30KT 9999 -SHRA SCT035 BKN045 FM251800 25018G28KT 9999 -SHRA BKN025 FM260800 26012KT 9999 -SHRA SCT025 BKN040 INTER 2506/2515 31025G45KT 3000 SHRA BKN020 INTER 2515/2606 VRB25G40KT 3000 SHRA BKN015

Decode

Departure Runways

ID Width Length Bearing (true) Bearing (mag) Surface Threshold Offset Overrun Length
03 151 ft / 46 m 11,390 ft / 3,472 m 13.89° 15.56° Asphalt 0 ft / 0 m 0 ft / 0 m
06 151 ft / 46 m 7,096 ft / 2,163 m 58.78° 60.45° Asphalt 0 ft / 0 m 0 ft / 0 m
21 151 ft / 46 m 11,390 ft / 3,472 m 193.88° 195.55° Asphalt 0 ft / 0 m 0 ft / 0 m
24 151 ft / 46 m 7,096 ft / 2,163 m 238.77° 240.44° Asphalt 0 ft / 0 m 0 ft / 0 m

YPLM

Details ICAO YPLM (LEA)
Name Learmonth
Region Australia
Timezone Australia/Perth (UTC+8.0)
Stats Elevation 19 ft / 6 m (AMSL)
Location -22.233620° 114.090064°
Runways 1
Magnetic Variation 0.282° E

METAR

YPLM 250730Z AUTO 24009KT 9999 // SCT026 BKN034 OVC039 24/17 Q1010

Decode

TAF

TAF YPLM 250513Z 2506/2606 22010KT 9999 -SHRA BKN045 FM251500 19008KT 9999 SCT045 INTER 2506/2509 24020G30KT 5000 SHRA SCT020

Decode

Destination Runways

ID Width Length Bearing (true) Bearing (mag) Surface Threshold Offset Overrun Length
18 148 ft / 45 m 10,548 ft / 3,215 m 183.82° 183.54° Asphalt 180 ft / 55 m 0 ft / 0 m
36 148 ft / 45 m 10,548 ft / 3,215 m 3.82° 3.54° Asphalt 240 ft / 73 m 0 ft / 0 m

Popular Alternatives